sensor_id;sensor_type;location;lat;lon;timestamp;P1;durP1;ratioP1;P2;durP2;ratioP2
77379;SDS011;66439;50.106;10.996;2023-03-13T00:01:21;26.10;;;16.60;;
77379;SDS011;66439;50.106;10.996;2023-03-13T00:03:27;24.10;;;14.60;;
77379;SDS011;66439;50.106;10.996;2023-03-13T00:05:33;26.20;;;18.10;;
77379;SDS011;66439;50.106;10.996;2023-03-13T00:07:37;28.50;;;16.50;;
77379;SDS011;66439;50.106;10.996;2023-03-13T00:09:40;20.20;;;14.80;;
77379;SDS011;66439;50.106;10.996;2023-03-13T00:11:44;21.10;;;19.20;;
77379;SDS011;66439;50.106;10.996;2023-03-13T00:13:47;23.90;;;18.10;;
77379;SDS011;66439;50.106;10.996;2023-03-13T00:15:58;23.10;;;14.10;;
77379;SDS011;66439;50.106;10.996;2023-03-13T00:18:04;25.00;;;22.50;;
77379;SDS011;66439;50.106;10.996;2023-03-13T00:20:07;19.40;;;14.00;;
77379;SDS011;66439;50.106;10.996;2023-03-13T00:22:13;15.80;;;13.20;;
77379;SDS011;66439;50.106;10.996;2023-03-13T00:24:18;21.00;;;14.70;;
77379;SDS011;66439;50.106;10.996;2023-03-13T00:26:22;23.90;;;14.40;;
77379;SDS011;66439;50.106;10.996;2023-03-13T00:28:27;19.80;;;17.10;;
77379;SDS011;66439;50.106;10.996;2023-03-13T00:30:34;24.10;;;19.60;;
77379;SDS011;66439;50.106;10.996;2023-03-13T00:32:40;27.20;;;17.50;;
77379;SDS011;66439;50.106;10.996;2023-03-13T00:34:44;22.30;;;17.60;;
77379;SDS011;66439;50.106;10.996;2023-03-13T00:36:49;23.00;;;20.60;;
77379;SDS011;66439;50.106;10.996;2023-03-13T00:38:52;26.00;;;22.70;;
77379;SDS011;66439;50.106;10.996;2023-03-13T00:41:02;29.80;;;18.90;;
77379;SDS011;66439;50.106;10.996;2023-03-13T00:43:07;27.30;;;23.90;;
77379;SDS011;66439;50.106;10.996;2023-03-13T00:45:10;20.30;;;17.50;;
77379;SDS011;66439;50.106;10.996;2023-03-13T00:47:12;19.20;;;17.00;;
77379;SDS011;66439;50.106;10.996;2023-03-13T00:49:17;24.30;;;17.10;;
77379;SDS011;66439;50.106;10.996;2023-03-13T00:51:21;18.30;;;14.10;;
77379;SDS011;66439;50.106;10.996;2023-03-13T00:53:25;25.00;;;15.70;;
77379;SDS011;66439;50.106;10.996;2023-03-13T00:55:29;15.80;;;13.10;;
77379;SDS011;66439;50.106;10.996;2023-03-13T00:57:31;19.00;;;15.70;;
77379;SDS011;66439;50.106;10.996;2023-03-13T00:59:38;18.00;;;13.70;;
77379;SDS011;66439;50.106;10.996;2023-03-13T01:01:41;19.20;;;14.10;;
77379;SDS011;66439;50.106;10.996;2023-03-13T01:03:45;23.50;;;16.10;;
77379;SDS011;66439;50.106;10.996;2023-03-13T01:05:59;21.90;;;14.70;;
77379;SDS011;66439;50.106;10.996;2023-03-13T01:08:03;20.10;;;15.00;;
77379;SDS011;66439;50.106;10.996;2023-03-13T01:10:07;19.80;;;14.30;;
77379;SDS011;66439;50.106;10.996;2023-03-13T01:12:10;16.60;;;14.30;;
77379;SDS011;66439;50.106;10.996;2023-03-13T01:14:17;31.20;;;16.50;;
77379;SDS011;66439;50.106;10.996;2023-03-13T01:16:21;23.70;;;16.50;;
77379;SDS011;66439;50.106;10.996;2023-03-13T01:18:25;24.80;;;18.30;;
77379;SDS011;66439;50.106;10.996;2023-03-13T01:20:29;19.90;;;15.20;;
77379;SDS011;66439;50.106;10.996;2023-03-13T01:22:32;21.50;;;13.30;;
77379;SDS011;66439;50.106;10.996;2023-03-13T01:24:34;20.00;;;14.90;;
77379;SDS011;66439;50.106;10.996;2023-03-13T01:26:37;24.40;;;13.20;;
77379;SDS011;66439;50.106;10.996;2023-03-13T01:28:40;18.80;;;15.10;;
77379;SDS011;66439;50.106;10.996;2023-03-13T01:30:43;18.50;;;14.10;;
77379;SDS011;66439;50.106;10.996;2023-03-13T01:32:46;23.00;;;13.80;;
77379;SDS011;66439;50.106;10.996;2023-03-13T01:34:49;19.80;;;12.40;;
77379;SDS011;66439;50.106;10.996;2023-03-13T01:36:52;16.40;;;12.40;;
77379;SDS011;66439;50.106;10.996;2023-03-13T01:38:56;16.80;;;11.40;;
77379;SDS011;66439;50.106;10.996;2023-03-13T01:41:01;18.60;;;12.90;;
77379;SDS011;66439;50.106;10.996;2023-03-13T01:47:59;18.00;;;13.10;;
77379;SDS011;66439;50.106;10.996;2023-03-13T01:50:18;19.40;;;12.10;;
77379;SDS011;66439;50.106;10.996;2023-03-13T01:52:26;15.10;;;13.60;;
77379;SDS011;66439;50.106;10.996;2023-03-13T01:55:25;19.90;;;12.30;;
77379;SDS011;66439;50.106;10.996;2023-03-13T01:57:15;16.30;;;13.10;;
77379;SDS011;66439;50.106;10.996;2023-03-13T01:59:25;20.30;;;15.50;;
77379;SDS011;66439;50.106;10.996;2023-03-13T02:03:40;21.20;;;19.10;;
77379;SDS011;66439;50.106;10.996;2023-03-13T02:05:44;18.90;;;17.30;;
77379;SDS011;66439;50.106;10.996;2023-03-13T02:07:53;20.30;;;13.00;;
77379;SDS011;66439;50.106;10.996;2023-03-13T02:10:05;21.70;;;17.50;;
77379;SDS011;66439;50.106;10.996;2023-03-13T02:12:12;24.20;;;15.60;;
77379;SDS011;66439;50.106;10.996;2023-03-13T02:14:18;17.10;;;14.70;;
77379;SDS011;66439;50.106;10.996;2023-03-13T02:16:24;17.00;;;13.60;;
77379;SDS011;66439;50.106;10.996;2023-03-13T02:18:28;28.30;;;21.60;;
77379;SDS011;66439;50.106;10.996;2023-03-13T02:20:31;18.10;;;16.30;;
77379;SDS011;66439;50.106;10.996;2023-03-13T02:22:42;19.50;;;16.30;;
77379;SDS011;66439;50.106;10.996;2023-03-13T02:24:57;22.50;;;15.40;;
77379;SDS011;66439;50.106;10.996;2023-03-13T02:27:08;31.30;;;20.10;;
77379;SDS011;66439;50.106;10.996;2023-03-13T02:29:13;22.80;;;15.50;;
77379;SDS011;66439;50.106;10.996;2023-03-13T02:31:19;18.20;;;15.90;;
77379;SDS011;66439;50.106;10.996;2023-03-13T02:33:25;17.70;;;12.10;;
77379;SDS011;66439;50.106;10.996;2023-03-13T02:35:30;17.30;;;10.70;;
77379;SDS011;66439;50.106;10.996;2023-03-13T02:41:47;13.80;;;4.20;;
77379;SDS011;66439;50.106;10.996;2023-03-13T02:43:52;15.90;;;8.90;;
77379;SDS011;66439;50.106;10.996;2023-03-13T02:46:01;16.90;;;6.90;;
77379;SDS011;66439;50.106;10.996;2023-03-13T02:48:07;27.90;;;12.20;;
77379;SDS011;66439;50.106;10.996;2023-03-13T02:50:10;21.40;;;11.20;;
77379;SDS011;66439;50.106;10.996;2023-03-13T02:54:32;16.70;;;7.80;;
77379;SDS011;66439;50.106;10.996;2023-03-13T02:56:39;23.00;;;7.80;;
77379;SDS011;66439;50.106;10.996;2023-03-13T02:58:44;16.60;;;6.00;;
77379;SDS011;66439;50.106;10.996;2023-03-13T03:00:54;16.70;;;4.20;;
77379;SDS011;66439;50.106;10.996;2023-03-13T03:02:57;20.80;;;6.20;;
77379;SDS011;66439;50.106;10.996;2023-03-13T03:05:00;15.40;;;5.20;;
77379;SDS011;66439;50.106;10.996;2023-03-13T03:07:03;11.80;;;5.20;;
77379;SDS011;66439;50.106;10.996;2023-03-13T03:09:07;13.00;;;4.40;;
77379;SDS011;66439;50.106;10.996;2023-03-13T03:11:10;12.60;;;4.20;;
77379;SDS011;66439;50.106;10.996;2023-03-13T03:13:15;12.40;;;4.70;;
77379;SDS011;66439;50.106;10.996;2023-03-13T03:15:18;12.30;;;5.10;;
77379;SDS011;66439;50.106;10.996;2023-03-13T03:17:22;12.30;;;4.60;;
77379;SDS011;66439;50.106;10.996;2023-03-13T03:19:24;16.10;;;3.60;;
77379;SDS011;66439;50.106;10.996;2023-03-13T03:21:27;17.10;;;4.00;;
77379;SDS011;66439;50.106;10.996;2023-03-13T03:23:32;10.90;;;3.90;;
77379;SDS011;66439;50.106;10.996;2023-03-13T03:25:35;11.80;;;5.10;;
77379;SDS011;66439;50.106;10.996;2023-03-13T03:27:38;20.60;;;6.00;;
77379;SDS011;66439;50.106;10.996;2023-03-13T03:29:42;15.90;;;5.10;;
77379;SDS011;66439;50.106;10.996;2023-03-13T03:31:45;15.30;;;7.50;;
77379;SDS011;66439;50.106;10.996;2023-03-13T03:33:48;17.40;;;5.60;;
77379;SDS011;66439;50.106;10.996;2023-03-13T03:35:51;14.90;;;5.30;;
77379;SDS011;66439;50.106;10.996;2023-03-13T03:38:01;15.20;;;4.80;;
77379;SDS011;66439;50.106;10.996;2023-03-13T03:40:05;21.80;;;5.10;;
77379;SDS011;66439;50.106;10.996;2023-03-13T03:42:09;10.80;;;4.00;;
77379;SDS011;66439;50.106;10.996;2023-03-13T03:44:12;15.90;;;4.50;;
77379;SDS011;66439;50.106;10.996;2023-03-13T03:46:24;18.40;;;5.50;;
77379;SDS011;66439;50.106;10.996;2023-03-13T03:48:27;21.90;;;4.90;;
77379;SDS011;66439;50.106;10.996;2023-03-13T03:50:31;16.80;;;5.10;;
77379;SDS011;66439;50.106;10.996;2023-03-13T03:52:36;16.10;;;5.90;;
77379;SDS011;66439;50.106;10.996;2023-03-13T03:54:40;15.20;;;4.60;;
77379;SDS011;66439;50.106;10.996;2023-03-13T03:56:43;13.20;;;4.80;;
77379;SDS011;66439;50.106;10.996;2023-03-13T03:58:46;16.10;;;7.80;;
77379;SDS011;66439;50.106;10.996;2023-03-13T04:01:09;15.70;;;4.80;;
77379;SDS011;66439;50.106;10.996;2023-03-13T04:03:11;13.60;;;4.80;;
77379;SDS011;66439;50.106;10.996;2023-03-13T04:05:18;18.20;;;7.10;;
77379;SDS011;66439;50.106;10.996;2023-03-13T04:07:21;15.00;;;9.90;;
77379;SDS011;66439;50.106;10.996;2023-03-13T04:09:26;18.20;;;4.80;;
77379;SDS011;66439;50.106;10.996;2023-03-13T04:11:32;15.20;;;4.20;;
77379;SDS011;66439;50.106;10.996;2023-03-13T04:13:35;16.10;;;5.20;;
77379;SDS011;66439;50.106;10.996;2023-03-13T04:15:38;15.40;;;4.40;;
77379;SDS011;66439;50.106;10.996;2023-03-13T04:17:43;13.00;;;6.90;;
77379;SDS011;66439;50.106;10.996;2023-03-13T04:19:47;19.00;;;6.50;;
77379;SDS011;66439;50.106;10.996;2023-03-13T04:21:50;13.00;;;7.20;;
77379;SDS011;66439;50.106;10.996;2023-03-13T04:23:54;14.30;;;4.70;;
77379;SDS011;66439;50.106;10.996;2023-03-13T04:25:58;14.00;;;4.70;;
77379;SDS011;66439;50.106;10.996;2023-03-13T04:28:01;19.20;;;6.60;;
77379;SDS011;66439;50.106;10.996;2023-03-13T04:30:11;16.70;;;4.40;;
77379;SDS011;66439;50.106;10.996;2023-03-13T04:32:36;14.50;;;4.00;;
77379;SDS011;66439;50.106;10.996;2023-03-13T04:34:56;20.00;;;7.90;;
77379;SDS011;66439;50.106;10.996;2023-03-13T04:37:21;13.30;;;4.70;;
77379;SDS011;66439;50.106;10.996;2023-03-13T04:39:36;16.80;;;4.50;;
77379;SDS011;66439;50.106;10.996;2023-03-13T04:41:48;12.80;;;4.30;;
77379;SDS011;66439;50.106;10.996;2023-03-13T04:44:17;15.40;;;7.20;;
77379;SDS011;66439;50.106;10.996;2023-03-13T04:46:50;32.30;;;6.70;;
77379;SDS011;66439;50.106;10.996;2023-03-13T04:49:19;16.80;;;5.20;;
77379;SDS011;66439;50.106;10.996;2023-03-13T04:51:43;15.10;;;6.10;;
77379;SDS011;66439;50.106;10.996;2023-03-13T04:54:01;16.70;;;4.70;;
77379;SDS011;66439;50.106;10.996;2023-03-13T04:56:20;11.00;;;4.40;;
77379;SDS011;66439;50.106;10.996;2023-03-13T05:01:25;10.80;;;3.90;;
77379;SDS011;66439;50.106;10.996;2023-03-13T05:03:38;13.50;;;4.90;;
77379;SDS011;66439;50.106;10.996;2023-03-13T05:06:06;20.90;;;5.90;;
77379;SDS011;66439;50.106;10.996;2023-03-13T05:08:28;13.30;;;4.10;;
77379;SDS011;66439;50.106;10.996;2023-03-13T05:10:43;14.80;;;4.90;;
77379;SDS011;66439;50.106;10.996;2023-03-13T05:13:07;11.30;;;5.00;;
77379;SDS011;66439;50.106;10.996;2023-03-13T05:15:20;15.10;;;5.90;;
77379;SDS011;66439;50.106;10.996;2023-03-13T05:17:38;13.30;;;5.00;;
77379;SDS011;66439;50.106;10.996;2023-03-13T05:19:52;17.30;;;4.90;;
77379;SDS011;66439;50.106;10.996;2023-03-13T05:22:09;14.00;;;4.20;;
77379;SDS011;66439;50.106;10.996;2023-03-13T05:24:32;12.00;;;4.70;;
77379;SDS011;66439;50.106;10.996;2023-03-13T05:27:01;12.20;;;4.80;;
77379;SDS011;66439;50.106;10.996;2023-03-13T05:29:19;12.80;;;4.20;;
77379;SDS011;66439;50.106;10.996;2023-03-13T05:31:40;20.10;;;6.80;;
77379;SDS011;66439;50.106;10.996;2023-03-13T05:34:02;17.30;;;4.60;;
77379;SDS011;66439;50.106;10.996;2023-03-13T05:36:23;17.30;;;4.40;;
77379;SDS011;66439;50.106;10.996;2023-03-13T05:38:46;17.20;;;5.70;;
77379;SDS011;66439;50.106;10.996;2023-03-13T05:40:56;25.00;;;9.60;;
77379;SDS011;66439;50.106;10.996;2023-03-13T05:43:19;12.70;;;4.40;;
77379;SDS011;66439;50.106;10.996;2023-03-13T05:45:39;13.00;;;5.10;;
77379;SDS011;66439;50.106;10.996;2023-03-13T05:47:56;15.60;;;7.20;;
77379;SDS011;66439;50.106;10.996;2023-03-13T05:50:18;13.40;;;5.50;;
77379;SDS011;66439;50.106;10.996;2023-03-13T05:52:56;11.80;;;7.40;;
77379;SDS011;66439;50.106;10.996;2023-03-13T05:55:09;12.70;;;5.00;;
77379;SDS011;66439;50.106;10.996;2023-03-13T05:57:36;18.70;;;4.80;;
77379;SDS011;66439;50.106;10.996;2023-03-13T05:59:54;14.10;;;5.20;;
77379;SDS011;66439;50.106;10.996;2023-03-13T06:02:16;10.80;;;4.90;;
77379;SDS011;66439;50.106;10.996;2023-03-13T06:04:19;12.70;;;4.70;;
77379;SDS011;66439;50.106;10.996;2023-03-13T06:06:23;12.10;;;4.80;;
77379;SDS011;66439;50.106;10.996;2023-03-13T06:08:29;12.20;;;5.90;;
77379;SDS011;66439;50.106;10.996;2023-03-13T06:10:35;17.30;;;6.20;;
77379;SDS011;66439;50.106;10.996;2023-03-13T06:12:37;19.10;;;4.90;;
77379;SDS011;66439;50.106;10.996;2023-03-13T06:14:41;17.70;;;5.50;;
77379;SDS011;66439;50.106;10.996;2023-03-13T06:16:44;18.80;;;5.20;;
77379;SDS011;66439;50.106;10.996;2023-03-13T06:18:54;18.40;;;4.30;;
77379;SDS011;66439;50.106;10.996;2023-03-13T06:20:57;14.30;;;8.00;;
77379;SDS011;66439;50.106;10.996;2023-03-13T06:23:02;18.10;;;5.70;;
77379;SDS011;66439;50.106;10.996;2023-03-13T06:25:05;16.70;;;8.00;;
77379;SDS011;66439;50.106;10.996;2023-03-13T06:27:10;19.00;;;10.60;;
77379;SDS011;66439;50.106;10.996;2023-03-13T06:29:13;27.70;;;6.90;;
77379;SDS011;66439;50.106;10.996;2023-03-13T06:31:15;17.50;;;5.40;;
77379;SDS011;66439;50.106;10.996;2023-03-13T06:33:18;13.40;;;7.00;;
77379;SDS011;66439;50.106;10.996;2023-03-13T06:35:21;20.30;;;6.10;;
77379;SDS011;66439;50.106;10.996;2023-03-13T06:37:24;11.40;;;4.70;;
77379;SDS011;66439;50.106;10.996;2023-03-13T06:39:26;9.90;;;4.10;;
77379;SDS011;66439;50.106;10.996;2023-03-13T06:41:29;10.00;;;4.10;;
77379;SDS011;66439;50.106;10.996;2023-03-13T06:43:32;15.80;;;4.30;;
77379;SDS011;66439;50.106;10.996;2023-03-13T06:45:36;15.30;;;4.60;;
77379;SDS011;66439;50.106;10.996;2023-03-13T06:47:39;12.90;;;4.80;;
77379;SDS011;66439;50.106;10.996;2023-03-13T06:49:42;13.90;;;5.20;;
77379;SDS011;66439;50.106;10.996;2023-03-13T06:51:45;13.60;;;5.60;;
77379;SDS011;66439;50.106;10.996;2023-03-13T06:53:48;14.60;;;4.10;;
77379;SDS011;66439;50.106;10.996;2023-03-13T06:55:53;12.50;;;7.90;;
77379;SDS011;66439;50.106;10.996;2023-03-13T06:57:56;14.00;;;10.90;;
77379;SDS011;66439;50.106;10.996;2023-03-13T06:59:59;19.00;;;6.40;;
77379;SDS011;66439;50.106;10.996;2023-03-13T07:02:01;16.80;;;7.70;;
77379;SDS011;66439;50.106;10.996;2023-03-13T07:04:04;17.40;;;8.20;;
77379;SDS011;66439;50.106;10.996;2023-03-13T07:06:07;16.30;;;5.20;;
77379;SDS011;66439;50.106;10.996;2023-03-13T07:08:14;11.80;;;4.90;;
77379;SDS011;66439;50.106;10.996;2023-03-13T07:10:16;11.80;;;6.30;;
77379;SDS011;66439;50.106;10.996;2023-03-13T07:12:19;13.60;;;6.50;;
77379;SDS011;66439;50.106;10.996;2023-03-13T07:14:22;14.80;;;4.70;;
77379;SDS011;66439;50.106;10.996;2023-03-13T07:16:25;9.60;;;4.30;;
77379;SDS011;66439;50.106;10.996;2023-03-13T07:18:28;12.20;;;4.50;;
77379;SDS011;66439;50.106;10.996;2023-03-13T07:20:32;15.50;;;5.40;;
77379;SDS011;66439;50.106;10.996;2023-03-13T07:22:36;12.70;;;4.60;;
77379;SDS011;66439;50.106;10.996;2023-03-13T07:24:39;10.50;;;4.00;;
77379;SDS011;66439;50.106;10.996;2023-03-13T07:26:42;15.00;;;5.00;;
77379;SDS011;66439;50.106;10.996;2023-03-13T07:29:03;13.10;;;4.90;;
77379;SDS011;66439;50.106;10.996;2023-03-13T07:31:15;8.90;;;4.30;;
77379;SDS011;66439;50.106;10.996;2023-03-13T07:33:20;17.20;;;7.70;;
77379;SDS011;66439;50.106;10.996;2023-03-13T07:35:23;11.70;;;4.60;;
77379;SDS011;66439;50.106;10.996;2023-03-13T07:37:26;10.70;;;4.70;;
77379;SDS011;66439;50.106;10.996;2023-03-13T07:39:28;10.00;;;4.00;;
77379;SDS011;66439;50.106;10.996;2023-03-13T07:41:31;10.20;;;5.20;;
77379;SDS011;66439;50.106;10.996;2023-03-13T07:43:34;18.30;;;5.30;;
77379;SDS011;66439;50.106;10.996;2023-03-13T07:45:37;15.50;;;5.10;;
77379;SDS011;66439;50.106;10.996;2023-03-13T07:47:40;13.50;;;5.20;;
77379;SDS011;66439;50.106;10.996;2023-03-13T07:49:42;10.00;;;5.50;;
77379;SDS011;66439;50.106;10.996;2023-03-13T07:51:47;11.40;;;8.30;;
77379;SDS011;66439;50.106;10.996;2023-03-13T07:53:52;11.00;;;4.60;;
77379;SDS011;66439;50.106;10.996;2023-03-13T07:55:56;13.50;;;5.80;;
77379;SDS011;66439;50.106;10.996;2023-03-13T07:58:01;11.10;;;4.70;;
77379;SDS011;66439;50.106;10.996;2023-03-13T08:00:04;6.70;;;5.50;;
77379;SDS011;66439;50.106;10.996;2023-03-13T08:02:13;7.70;;;3.80;;
77379;SDS011;66439;50.106;10.996;2023-03-13T08:04:17;8.90;;;4.50;;
77379;SDS011;66439;50.106;10.996;2023-03-13T08:06:22;8.40;;;3.70;;
77379;SDS011;66439;50.106;10.996;2023-03-13T08:08:26;7.20;;;4.00;;
77379;SDS011;66439;50.106;10.996;2023-03-13T08:10:30;12.10;;;3.70;;
77379;SDS011;66439;50.106;10.996;2023-03-13T08:12:33;9.00;;;3.50;;
77379;SDS011;66439;50.106;10.996;2023-03-13T08:14:35;10.40;;;3.60;;
77379;SDS011;66439;50.106;10.996;2023-03-13T08:16:38;7.60;;;3.30;;
77379;SDS011;66439;50.106;10.996;2023-03-13T08:18:42;8.50;;;3.20;;
77379;SDS011;66439;50.106;10.996;2023-03-13T08:20:47;4.70;;;3.70;;
77379;SDS011;66439;50.106;10.996;2023-03-13T08:22:49;6.50;;;3.60;;
77379;SDS011;66439;50.106;10.996;2023-03-13T08:24:52;6.00;;;3.10;;
77379;SDS011;66439;50.106;10.996;2023-03-13T08:26:55;6.30;;;3.60;;
77379;SDS011;66439;50.106;10.996;2023-03-13T08:28:59;7.30;;;4.00;;
77379;SDS011;66439;50.106;10.996;2023-03-13T08:31:27;7.70;;;5.00;;
77379;SDS011;66439;50.106;10.996;2023-03-13T08:33:30;8.10;;;3.80;;
77379;SDS011;66439;50.106;10.996;2023-03-13T08:35:33;6.50;;;3.40;;
77379;SDS011;66439;50.106;10.996;2023-03-13T08:37:35;15.50;;;8.60;;
77379;SDS011;66439;50.106;10.996;2023-03-13T08:39:38;9.40;;;3.80;;
77379;SDS011;66439;50.106;10.996;2023-03-13T08:41:41;7.10;;;4.10;;
77379;SDS011;66439;50.106;10.996;2023-03-13T08:43:43;12.40;;;6.00;;
77379;SDS011;66439;50.106;10.996;2023-03-13T08:45:52;9.70;;;8.70;;
77379;SDS011;66439;50.106;10.996;2023-03-13T08:47:58;10.90;;;4.00;;
77379;SDS011;66439;50.106;10.996;2023-03-13T08:50:01;6.50;;;4.10;;
77379;SDS011;66439;50.106;10.996;2023-03-13T08:52:05;10.60;;;6.70;;
77379;SDS011;66439;50.106;10.996;2023-03-13T08:54:09;14.30;;;3.90;;
77379;SDS011;66439;50.106;10.996;2023-03-13T08:56:12;12.90;;;5.10;;
77379;SDS011;66439;50.106;10.996;2023-03-13T08:58:17;10.40;;;3.90;;
77379;SDS011;66439;50.106;10.996;2023-03-13T09:00:20;12.90;;;4.30;;
77379;SDS011;66439;50.106;10.996;2023-03-13T09:02:23;8.30;;;4.20;;
77379;SDS011;66439;50.106;10.996;2023-03-13T09:04:27;8.30;;;4.00;;
77379;SDS011;66439;50.106;10.996;2023-03-13T09:06:31;10.00;;;3.60;;
77379;SDS011;66439;50.106;10.996;2023-03-13T09:08:36;9.90;;;3.60;;
77379;SDS011;66439;50.106;10.996;2023-03-13T09:10:39;8.20;;;4.30;;
77379;SDS011;66439;50.106;10.996;2023-03-13T09:12:44;10.00;;;5.30;;
77379;SDS011;66439;50.106;10.996;2023-03-13T09:14:50;9.10;;;5.50;;
77379;SDS011;66439;50.106;10.996;2023-03-13T09:16:53;8.60;;;7.70;;
77379;SDS011;66439;50.106;10.996;2023-03-13T09:18:58;6.80;;;4.90;;
77379;SDS011;66439;50.106;10.996;2023-03-13T09:21:07;14.60;;;7.60;;
77379;SDS011;66439;50.106;10.996;2023-03-13T09:23:13;12.20;;;3.80;;
77379;SDS011;66439;50.106;10.996;2023-03-13T09:25:18;7.40;;;4.30;;
77379;SDS011;66439;50.106;10.996;2023-03-13T09:27:21;6.00;;;3.60;;
77379;SDS011;66439;50.106;10.996;2023-03-13T09:29:23;6.80;;;3.30;;
77379;SDS011;66439;50.106;10.996;2023-03-13T09:31:27;7.80;;;4.20;;
77379;SDS011;66439;50.106;10.996;2023-03-13T09:33:31;7.70;;;4.90;;
77379;SDS011;66439;50.106;10.996;2023-03-13T09:35:36;7.70;;;5.00;;
77379;SDS011;66439;50.106;10.996;2023-03-13T09:37:40;11.00;;;5.20;;
77379;SDS011;66439;50.106;10.996;2023-03-13T09:39:43;8.90;;;8.00;;
77379;SDS011;66439;50.106;10.996;2023-03-13T09:41:51;9.50;;;5.20;;
77379;SDS011;66439;50.106;10.996;2023-03-13T09:46:44;7.10;;;4.20;;
77379;SDS011;66439;50.106;10.996;2023-03-13T09:49:44;9.40;;;5.90;;
77379;SDS011;66439;50.106;10.996;2023-03-13T09:51:28;12.40;;;4.60;;
77379;SDS011;66439;50.106;10.996;2023-03-13T09:53:44;8.10;;;3.80;;
77379;SDS011;66439;50.106;10.996;2023-03-13T09:56:01;8.50;;;4.20;;
77379;SDS011;66439;50.106;10.996;2023-03-13T10:00:14;6.70;;;4.30;;
77379;SDS011;66439;50.106;10.996;2023-03-13T10:02:31;7.10;;;4.80;;
77379;SDS011;66439;50.106;10.996;2023-03-13T10:04:37;6.30;;;5.50;;
77379;SDS011;66439;50.106;10.996;2023-03-13T10:06:44;6.00;;;3.40;;
77379;SDS011;66439;50.106;10.996;2023-03-13T10:08:50;5.80;;;3.80;;
77379;SDS011;66439;50.106;10.996;2023-03-13T10:13:32;6.70;;;3.60;;
77379;SDS011;66439;50.106;10.996;2023-03-13T10:15:45;8.70;;;6.50;;
77379;SDS011;66439;50.106;10.996;2023-03-13T10:17:54;7.40;;;4.80;;
77379;SDS011;66439;50.106;10.996;2023-03-13T10:20:40;10.50;;;6.30;;
77379;SDS011;66439;50.106;10.996;2023-03-13T10:22:28;9.30;;;4.90;;
77379;SDS011;66439;50.106;10.996;2023-03-13T10:27:31;4.80;;;3.40;;
77379;SDS011;66439;50.106;10.996;2023-03-13T10:29:44;4.80;;;4.00;;
77379;SDS011;66439;50.106;10.996;2023-03-13T10:31:57;7.90;;;4.10;;
77379;SDS011;66439;50.106;10.996;2023-03-13T10:34:09;10.20;;;9.20;;
77379;SDS011;66439;50.106;10.996;2023-03-13T10:36:14;9.20;;;5.90;;
77379;SDS011;66439;50.106;10.996;2023-03-13T10:38:17;5.80;;;5.30;;
77379;SDS011;66439;50.106;10.996;2023-03-13T10:40:23;7.00;;;4.20;;
77379;SDS011;66439;50.106;10.996;2023-03-13T10:42:27;5.70;;;4.30;;
77379;SDS011;66439;50.106;10.996;2023-03-13T10:44:37;4.70;;;3.30;;
77379;SDS011;66439;50.106;10.996;2023-03-13T10:46:41;8.30;;;3.70;;
77379;SDS011;66439;50.106;10.996;2023-03-13T10:48:46;4.50;;;3.50;;
77379;SDS011;66439;50.106;10.996;2023-03-13T10:50:49;4.10;;;3.70;;
77379;SDS011;66439;50.106;10.996;2023-03-13T10:52:54;7.00;;;6.40;;
77379;SDS011;66439;50.106;10.996;2023-03-13T10:55:04;6.70;;;4.70;;
77379;SDS011;66439;50.106;10.996;2023-03-13T10:59:24;5.70;;;4.50;;
77379;SDS011;66439;50.106;10.996;2023-03-13T11:01:29;6.70;;;6.10;;
77379;SDS011;66439;50.106;10.996;2023-03-13T11:03:54;5.60;;;5.10;;
77379;SDS011;66439;50.106;10.996;2023-03-13T11:05:59;6.30;;;4.50;;
77379;SDS011;66439;50.106;10.996;2023-03-13T11:08:10;5.50;;;4.50;;
77379;SDS011;66439;50.106;10.996;2023-03-13T11:10:23;10.60;;;6.60;;
77379;SDS011;66439;50.106;10.996;2023-03-13T11:14:34;6.40;;;4.90;;
77379;SDS011;66439;50.106;10.996;2023-03-13T11:16:41;8.90;;;8.10;;
77379;SDS011;66439;50.106;10.996;2023-03-13T11:21:59;7.50;;;4.60;;
77379;SDS011;66439;50.106;10.996;2023-03-13T11:23:48;7.00;;;6.10;;
77379;SDS011;66439;50.106;10.996;2023-03-13T11:28:19;6.50;;;3.90;;
77379;SDS011;66439;50.106;10.996;2023-03-13T11:32:56;6.70;;;4.90;;
77379;SDS011;66439;50.106;10.996;2023-03-13T11:35:06;9.00;;;4.10;;
77379;SDS011;66439;50.106;10.996;2023-03-13T11:37:19;5.80;;;3.80;;
77379;SDS011;66439;50.106;10.996;2023-03-13T11:44:18;7.30;;;4.40;;
77379;SDS011;66439;50.106;10.996;2023-03-13T11:46:42;6.70;;;3.80;;
77379;SDS011;66439;50.106;10.996;2023-03-13T11:51:45;11.50;;;5.10;;
77379;SDS011;66439;50.106;10.996;2023-03-13T11:54:19;7.20;;;5.30;;
77379;SDS011;66439;50.106;10.996;2023-03-13T11:57:34;6.30;;;5.50;;
77379;SDS011;66439;50.106;10.996;2023-03-13T11:59:35;5.60;;;3.70;;
77379;SDS011;66439;50.106;10.996;2023-03-13T12:01:51;7.80;;;6.00;;
77379;SDS011;66439;50.106;10.996;2023-03-13T12:04:03;5.30;;;4.00;;
77379;SDS011;66439;50.106;10.996;2023-03-13T12:06:22;5.50;;;4.30;;
77379;SDS011;66439;50.106;10.996;2023-03-13T12:09:15;5.50;;;4.10;;
77379;SDS011;66439;50.106;10.996;2023-03-13T12:11:35;6.10;;;4.50;;
77379;SDS011;66439;50.106;10.996;2023-03-13T12:13:49;7.60;;;6.90;;
77379;SDS011;66439;50.106;10.996;2023-03-13T12:15:57;7.00;;;4.50;;
77379;SDS011;66439;50.106;10.996;2023-03-13T12:18:06;5.80;;;4.00;;
77379;SDS011;66439;50.106;10.996;2023-03-13T12:20:23;6.20;;;3.80;;
77379;SDS011;66439;50.106;10.996;2023-03-13T12:22:35;8.00;;;6.80;;
77379;SDS011;66439;50.106;10.996;2023-03-13T12:24:47;6.90;;;4.90;;
77379;SDS011;66439;50.106;10.996;2023-03-13T12:27:01;9.20;;;4.80;;
77379;SDS011;66439;50.106;10.996;2023-03-13T12:32:02;8.30;;;5.20;;
77379;SDS011;66439;50.106;10.996;2023-03-13T12:34:17;8.40;;;5.60;;
77379;SDS011;66439;50.106;10.996;2023-03-13T12:38:54;8.00;;;4.30;;
77379;SDS011;66439;50.106;10.996;2023-03-13T12:41:12;7.60;;;5.30;;
77379;SDS011;66439;50.106;10.996;2023-03-13T12:45:24;7.00;;;4.60;;
77379;SDS011;66439;50.106;10.996;2023-03-13T12:47:39;8.60;;;4.90;;
77379;SDS011;66439;50.106;10.996;2023-03-13T12:52:29;8.50;;;7.00;;
77379;SDS011;66439;50.106;10.996;2023-03-13T12:57:52;8.00;;;3.60;;
77379;SDS011;66439;50.106;10.996;2023-03-13T13:00:15;8.60;;;5.10;;
77379;SDS011;66439;50.106;10.996;2023-03-13T13:02:23;10.80;;;8.30;;
77379;SDS011;66439;50.106;10.996;2023-03-13T13:04:31;7.10;;;3.80;;
77379;SDS011;66439;50.106;10.996;2023-03-13T13:06:49;8.00;;;4.60;;
77379;SDS011;66439;50.106;10.996;2023-03-13T13:09:12;8.10;;;6.70;;
77379;SDS011;66439;50.106;10.996;2023-03-13T13:13:40;6.90;;;4.60;;
77379;SDS011;66439;50.106;10.996;2023-03-13T13:16:01;11.30;;;4.80;;
77379;SDS011;66439;50.106;10.996;2023-03-13T13:18:13;7.00;;;4.10;;
77379;SDS011;66439;50.106;10.996;2023-03-13T13:20:34;9.30;;;4.80;;
77379;SDS011;66439;50.106;10.996;2023-03-13T13:24:50;8.70;;;7.70;;
77379;SDS011;66439;50.106;10.996;2023-03-13T13:26:54;7.80;;;4.50;;
77379;SDS011;66439;50.106;10.996;2023-03-13T13:28:58;9.10;;;4.50;;
77379;SDS011;66439;50.106;10.996;2023-03-13T13:31:05;8.00;;;5.00;;
77379;SDS011;66439;50.106;10.996;2023-03-13T13:33:44;8.90;;;6.40;;
77379;SDS011;66439;50.106;10.996;2023-03-13T13:36:24;7.10;;;5.20;;
77379;SDS011;66439;50.106;10.996;2023-03-13T13:40:22;9.10;;;5.00;;